sensor_id;sensor_type;location;lat;lon;timestamp;P1;durP1;ratioP1;P2;durP2;ratioP2
16510;SDS011;8368;48.772;8.754;2022-12-13T00:00:09;19.57;;;9.90;;
16510;SDS011;8368;48.772;8.754;2022-12-13T00:02:42;22.50;;;10.97;;
16510;SDS011;8368;48.772;8.754;2022-12-13T00:05:08;23.17;;;11.17;;
16510;SDS011;8368;48.772;8.754;2022-12-13T00:07:34;22.50;;;11.67;;
16510;SDS011;8368;48.772;8.754;2022-12-13T00:10:00;25.57;;;12.07;;
16510;SDS011;8368;48.772;8.754;2022-12-13T00:12:26;23.37;;;10.67;;
16510;SDS011;8368;48.772;8.754;2022-12-13T00:14:51;20.07;;;10.30;;
16510;SDS011;8368;48.772;8.754;2022-12-13T00:17:17;23.23;;;10.50;;
16510;SDS011;8368;48.772;8.754;2022-12-13T00:19:43;15.80;;;9.13;;
16510;SDS011;8368;48.772;8.754;2022-12-13T00:22:10;18.03;;;9.33;;
16510;SDS011;8368;48.772;8.754;2022-12-13T00:24:36;17.63;;;9.57;;
16510;SDS011;8368;48.772;8.754;2022-12-13T00:27:01;20.83;;;9.63;;
16510;SDS011;8368;48.772;8.754;2022-12-13T00:29:27;18.60;;;9.20;;
16510;SDS011;8368;48.772;8.754;2022-12-13T00:31:53;17.30;;;9.37;;
16510;SDS011;8368;48.772;8.754;2022-12-13T00:34:18;24.27;;;9.80;;
16510;SDS011;8368;48.772;8.754;2022-12-13T00:36:44;18.17;;;10.53;;
16510;SDS011;8368;48.772;8.754;2022-12-13T00:39:10;22.53;;;10.33;;
16510;SDS011;8368;48.772;8.754;2022-12-13T00:41:38;22.00;;;9.53;;
16510;SDS011;8368;48.772;8.754;2022-12-13T00:44:04;19.40;;;10.50;;
16510;SDS011;8368;48.772;8.754;2022-12-13T00:46:30;19.30;;;9.50;;
16510;SDS011;8368;48.772;8.754;2022-12-13T00:48:58;17.73;;;9.13;;
16510;SDS011;8368;48.772;8.754;2022-12-13T00:51:25;17.20;;;8.87;;
16510;SDS011;8368;48.772;8.754;2022-12-13T00:53:52;15.60;;;8.97;;
16510;SDS011;8368;48.772;8.754;2022-12-13T00:56:19;19.10;;;9.13;;
16510;SDS011;8368;48.772;8.754;2022-12-13T00:58:46;18.37;;;8.97;;
16510;SDS011;8368;48.772;8.754;2022-12-13T01:01:13;17.33;;;9.27;;
16510;SDS011;8368;48.772;8.754;2022-12-13T01:03:39;15.73;;;8.33;;
16510;SDS011;8368;48.772;8.754;2022-12-13T01:06:10;16.80;;;9.23;;
16510;SDS011;8368;48.772;8.754;2022-12-13T01:08:37;19.13;;;9.77;;
16510;SDS011;8368;48.772;8.754;2022-12-13T01:11:05;21.43;;;9.20;;
16510;SDS011;8368;48.772;8.754;2022-12-13T01:13:32;19.77;;;10.10;;
16510;SDS011;8368;48.772;8.754;2022-12-13T01:16:00;20.00;;;9.93;;
16510;SDS011;8368;48.772;8.754;2022-12-13T01:18:28;20.37;;;9.50;;
16510;SDS011;8368;48.772;8.754;2022-12-13T01:20:57;21.30;;;10.67;;
16510;SDS011;8368;48.772;8.754;2022-12-13T01:23:30;16.80;;;9.10;;
16510;SDS011;8368;48.772;8.754;2022-12-13T01:25:56;19.73;;;10.67;;
16510;SDS011;8368;48.772;8.754;2022-12-13T01:28:22;20.03;;;9.87;;
16510;SDS011;8368;48.772;8.754;2022-12-13T01:30:59;21.10;;;10.87;;
16510;SDS011;8368;48.772;8.754;2022-12-13T01:33:27;19.30;;;9.97;;
16510;SDS011;8368;48.772;8.754;2022-12-13T01:35:54;22.00;;;10.33;;
16510;SDS011;8368;48.772;8.754;2022-12-13T01:38:19;18.20;;;9.80;;
16510;SDS011;8368;48.772;8.754;2022-12-13T01:40:46;23.73;;;10.43;;
16510;SDS011;8368;48.772;8.754;2022-12-13T01:43:21;18.43;;;9.33;;
16510;SDS011;8368;48.772;8.754;2022-12-13T01:45:48;19.17;;;8.97;;
16510;SDS011;8368;48.772;8.754;2022-12-13T01:48:24;19.43;;;9.40;;
16510;SDS011;8368;48.772;8.754;2022-12-13T01:50:54;16.27;;;8.87;;
16510;SDS011;8368;48.772;8.754;2022-12-13T01:53:26;20.83;;;10.03;;
16510;SDS011;8368;48.772;8.754;2022-12-13T01:55:56;18.40;;;8.60;;
16510;SDS011;8368;48.772;8.754;2022-12-13T01:58:26;16.33;;;8.47;;
16510;SDS011;8368;48.772;8.754;2022-12-13T02:00:52;17.10;;;8.77;;
16510;SDS011;8368;48.772;8.754;2022-12-13T02:03:18;17.00;;;9.20;;
16510;SDS011;8368;48.772;8.754;2022-12-13T02:05:54;19.67;;;10.13;;
16510;SDS011;8368;48.772;8.754;2022-12-13T02:08:24;19.57;;;10.10;;
16510;SDS011;8368;48.772;8.754;2022-12-13T02:10:50;19.57;;;9.73;;
16510;SDS011;8368;48.772;8.754;2022-12-13T02:13:16;16.83;;;9.00;;
16510;SDS011;8368;48.772;8.754;2022-12-13T02:21:32;16.33;;;9.13;;
16510;SDS011;8368;48.772;8.754;2022-12-13T02:31:56;18.40;;;9.97;;
16510;SDS011;8368;48.772;8.754;2022-12-13T02:34:32;20.83;;;8.83;;
16510;SDS011;8368;48.772;8.754;2022-12-13T02:37:12;15.53;;;9.03;;
16510;SDS011;8368;48.772;8.754;2022-12-13T02:42:46;18.93;;;9.23;;
16510;SDS011;8368;48.772;8.754;2022-12-13T02:45:36;18.50;;;9.80;;
16510;SDS011;8368;48.772;8.754;2022-12-13T02:48:08;16.33;;;8.83;;
16510;SDS011;8368;48.772;8.754;2022-12-13T02:50:36;23.47;;;9.20;;
16510;SDS011;8368;48.772;8.754;2022-12-13T02:53:02;14.97;;;9.10;;
16510;SDS011;8368;48.772;8.754;2022-12-13T02:55:29;17.33;;;8.90;;
16510;SDS011;8368;48.772;8.754;2022-12-13T02:57:59;18.23;;;9.17;;
16510;SDS011;8368;48.772;8.754;2022-12-13T03:01:08;22.97;;;9.83;;
16510;SDS011;8368;48.772;8.754;2022-12-13T03:03:21;20.63;;;9.47;;
16510;SDS011;8368;48.772;8.754;2022-12-13T03:09:37;15.87;;;8.43;;
16510;SDS011;8368;48.772;8.754;2022-12-13T03:12:18;22.33;;;10.23;;
16510;SDS011;8368;48.772;8.754;2022-12-13T03:17:48;21.83;;;9.90;;
16510;SDS011;8368;48.772;8.754;2022-12-13T03:20:21;26.07;;;9.13;;
16510;SDS011;8368;48.772;8.754;2022-12-13T03:22:50;19.90;;;9.10;;
16510;SDS011;8368;48.772;8.754;2022-12-13T03:25:16;22.73;;;9.43;;
16510;SDS011;8368;48.772;8.754;2022-12-13T03:27:43;17.17;;;9.47;;
16510;SDS011;8368;48.772;8.754;2022-12-13T03:30:09;18.57;;;9.53;;
16510;SDS011;8368;48.772;8.754;2022-12-13T03:32:34;21.47;;;8.80;;
16510;SDS011;8368;48.772;8.754;2022-12-13T03:35:00;20.23;;;10.53;;
16510;SDS011;8368;48.772;8.754;2022-12-13T03:37:25;18.90;;;10.10;;
16510;SDS011;8368;48.772;8.754;2022-12-13T03:39:51;22.03;;;10.53;;
16510;SDS011;8368;48.772;8.754;2022-12-13T03:42:17;16.07;;;8.17;;
16510;SDS011;8368;48.772;8.754;2022-12-13T03:44:43;24.03;;;10.03;;
16510;SDS011;8368;48.772;8.754;2022-12-13T03:47:08;20.27;;;9.50;;
16510;SDS011;8368;48.772;8.754;2022-12-13T03:49:34;23.80;;;10.03;;
16510;SDS011;8368;48.772;8.754;2022-12-13T03:51:59;17.13;;;9.03;;
16510;SDS011;8368;48.772;8.754;2022-12-13T03:54:25;17.53;;;8.73;;
16510;SDS011;8368;48.772;8.754;2022-12-13T03:56:50;20.03;;;10.00;;
16510;SDS011;8368;48.772;8.754;2022-12-13T03:59:16;17.33;;;9.40;;
16510;SDS011;8368;48.772;8.754;2022-12-13T04:01:41;17.60;;;9.47;;
16510;SDS011;8368;48.772;8.754;2022-12-13T04:04:07;19.30;;;9.50;;
16510;SDS011;8368;48.772;8.754;2022-12-13T04:06:32;21.90;;;10.03;;
16510;SDS011;8368;48.772;8.754;2022-12-13T04:08:58;24.10;;;11.13;;
16510;SDS011;8368;48.772;8.754;2022-12-13T04:11:24;22.57;;;10.77;;
16510;SDS011;8368;48.772;8.754;2022-12-13T04:14:08;26.13;;;11.33;;
16510;SDS011;8368;48.772;8.754;2022-12-13T04:16:33;20.97;;;9.87;;
16510;SDS011;8368;48.772;8.754;2022-12-13T04:18:59;21.57;;;10.67;;
16510;SDS011;8368;48.772;8.754;2022-12-13T04:21:24;22.20;;;10.10;;
16510;SDS011;8368;48.772;8.754;2022-12-13T04:23:50;24.37;;;11.30;;
16510;SDS011;8368;48.772;8.754;2022-12-13T04:26:15;23.87;;;10.70;;
16510;SDS011;8368;48.772;8.754;2022-12-13T04:28:41;22.47;;;10.13;;
16510;SDS011;8368;48.772;8.754;2022-12-13T04:31:06;23.70;;;10.97;;
16510;SDS011;8368;48.772;8.754;2022-12-13T04:33:32;23.67;;;10.33;;
16510;SDS011;8368;48.772;8.754;2022-12-13T04:35:58;21.13;;;10.13;;
16510;SDS011;8368;48.772;8.754;2022-12-13T04:38:24;21.53;;;10.37;;
16510;SDS011;8368;48.772;8.754;2022-12-13T04:40:49;21.27;;;10.57;;
16510;SDS011;8368;48.772;8.754;2022-12-13T04:43:15;19.77;;;10.13;;
16510;SDS011;8368;48.772;8.754;2022-12-13T04:45:40;26.63;;;10.73;;
16510;SDS011;8368;48.772;8.754;2022-12-13T04:48:06;20.97;;;9.97;;
16510;SDS011;8368;48.772;8.754;2022-12-13T04:50:31;16.73;;;8.73;;
16510;SDS011;8368;48.772;8.754;2022-12-13T04:52:57;20.90;;;10.03;;
16510;SDS011;8368;48.772;8.754;2022-12-13T04:55:23;23.63;;;9.83;;
16510;SDS011;8368;48.772;8.754;2022-12-13T04:57:49;16.17;;;8.70;;
16510;SDS011;8368;48.772;8.754;2022-12-13T05:00:14;17.70;;;8.57;;
16510;SDS011;8368;48.772;8.754;2022-12-13T05:02:40;15.43;;;8.13;;
16510;SDS011;8368;48.772;8.754;2022-12-13T05:05:09;20.40;;;9.07;;
16510;SDS011;8368;48.772;8.754;2022-12-13T05:07:35;16.90;;;8.47;;
16510;SDS011;8368;48.772;8.754;2022-12-13T05:10:01;16.43;;;9.53;;
16510;SDS011;8368;48.772;8.754;2022-12-13T05:12:27;15.73;;;9.73;;
16510;SDS011;8368;48.772;8.754;2022-12-13T05:14:53;21.33;;;8.97;;
16510;SDS011;8368;48.772;8.754;2022-12-13T05:17:18;18.67;;;9.47;;
16510;SDS011;8368;48.772;8.754;2022-12-13T05:19:45;18.23;;;9.50;;
16510;SDS011;8368;48.772;8.754;2022-12-13T05:22:10;21.40;;;9.40;;
16510;SDS011;8368;48.772;8.754;2022-12-13T05:24:42;20.40;;;9.63;;
16510;SDS011;8368;48.772;8.754;2022-12-13T05:27:08;20.13;;;9.20;;
16510;SDS011;8368;48.772;8.754;2022-12-13T05:29:35;23.17;;;9.27;;
16510;SDS011;8368;48.772;8.754;2022-12-13T05:32:01;21.40;;;9.57;;
16510;SDS011;8368;48.772;8.754;2022-12-13T05:34:30;22.13;;;9.73;;
16510;SDS011;8368;48.772;8.754;2022-12-13T05:36:56;19.27;;;9.57;;
16510;SDS011;8368;48.772;8.754;2022-12-13T05:39:21;20.30;;;10.27;;
16510;SDS011;8368;48.772;8.754;2022-12-13T05:41:47;20.13;;;9.80;;
16510;SDS011;8368;48.772;8.754;2022-12-13T05:44:12;24.70;;;10.93;;
16510;SDS011;8368;48.772;8.754;2022-12-13T05:46:39;20.30;;;10.50;;
16510;SDS011;8368;48.772;8.754;2022-12-13T05:49:04;30.97;;;11.63;;
16510;SDS011;8368;48.772;8.754;2022-12-13T05:51:30;27.47;;;13.40;;
16510;SDS011;8368;48.772;8.754;2022-12-13T05:53:55;35.67;;;15.10;;
16510;SDS011;8368;48.772;8.754;2022-12-13T05:56:21;40.33;;;16.70;;
16510;SDS011;8368;48.772;8.754;2022-12-13T05:58:46;41.13;;;17.40;;
16510;SDS011;8368;48.772;8.754;2022-12-13T06:01:13;35.83;;;16.67;;
16510;SDS011;8368;48.772;8.754;2022-12-13T06:03:40;33.53;;;15.83;;
16510;SDS011;8368;48.772;8.754;2022-12-13T06:06:06;37.30;;;16.60;;
16510;SDS011;8368;48.772;8.754;2022-12-13T06:08:34;34.57;;;14.83;;
16510;SDS011;8368;48.772;8.754;2022-12-13T06:11:00;33.97;;;15.03;;
16510;SDS011;8368;48.772;8.754;2022-12-13T06:13:27;27.63;;;14.03;;
16510;SDS011;8368;48.772;8.754;2022-12-13T06:15:53;36.83;;;15.00;;
16510;SDS011;8368;48.772;8.754;2022-12-13T06:18:23;28.80;;;14.63;;
16510;SDS011;8368;48.772;8.754;2022-12-13T06:20:56;32.80;;;15.63;;
16510;SDS011;8368;48.772;8.754;2022-12-13T06:23:22;32.63;;;14.17;;
16510;SDS011;8368;48.772;8.754;2022-12-13T06:25:48;29.60;;;14.30;;
16510;SDS011;8368;48.772;8.754;2022-12-13T06:28:14;37.73;;;16.07;;
16510;SDS011;8368;48.772;8.754;2022-12-13T06:30:39;32.00;;;15.13;;
16510;SDS011;8368;48.772;8.754;2022-12-13T06:33:05;31.53;;;15.93;;
16510;SDS011;8368;48.772;8.754;2022-12-13T06:35:30;35.63;;;14.70;;
16510;SDS011;8368;48.772;8.754;2022-12-13T06:37:56;35.13;;;14.83;;
16510;SDS011;8368;48.772;8.754;2022-12-13T06:40:22;30.37;;;13.83;;
16510;SDS011;8368;48.772;8.754;2022-12-13T06:42:47;24.43;;;12.63;;
16510;SDS011;8368;48.772;8.754;2022-12-13T06:45:13;28.47;;;13.93;;
16510;SDS011;8368;48.772;8.754;2022-12-13T06:47:39;31.63;;;14.50;;
16510;SDS011;8368;48.772;8.754;2022-12-13T06:50:04;24.57;;;12.23;;
16510;SDS011;8368;48.772;8.754;2022-12-13T06:52:30;26.63;;;12.10;;
16510;SDS011;8368;48.772;8.754;2022-12-13T06:54:56;30.07;;;12.63;;
16510;SDS011;8368;48.772;8.754;2022-12-13T06:57:21;34.00;;;17.08;;
16510;SDS011;8368;48.772;8.754;2022-12-13T06:59:47;27.30;;;12.87;;
16510;SDS011;8368;48.772;8.754;2022-12-13T07:02:12;26.63;;;12.53;;
16510;SDS011;8368;48.772;8.754;2022-12-13T07:04:38;29.57;;;12.10;;
16510;SDS011;8368;48.772;8.754;2022-12-13T07:07:04;26.27;;;10.93;;
16510;SDS011;8368;48.772;8.754;2022-12-13T07:09:29;25.17;;;11.47;;
16510;SDS011;8368;48.772;8.754;2022-12-13T07:11:56;18.63;;;10.40;;
16510;SDS011;8368;48.772;8.754;2022-12-13T07:14:22;24.53;;;10.83;;
16510;SDS011;8368;48.772;8.754;2022-12-13T07:16:48;25.30;;;11.63;;
16510;SDS011;8368;48.772;8.754;2022-12-13T07:19:13;25.27;;;11.23;;
16510;SDS011;8368;48.772;8.754;2022-12-13T07:21:39;20.20;;;11.37;;
16510;SDS011;8368;48.772;8.754;2022-12-13T07:24:05;24.90;;;11.63;;
16510;SDS011;8368;48.772;8.754;2022-12-13T07:26:31;21.33;;;11.13;;
16510;SDS011;8368;48.772;8.754;2022-12-13T07:28:56;22.50;;;11.30;;
16510;SDS011;8368;48.772;8.754;2022-12-13T07:31:22;25.00;;;11.50;;
16510;SDS011;8368;48.772;8.754;2022-12-13T07:33:48;21.63;;;12.07;;
16510;SDS011;8368;48.772;8.754;2022-12-13T07:36:15;28.00;;;12.60;;
16510;SDS011;8368;48.772;8.754;2022-12-13T07:38:42;22.83;;;12.33;;
16510;SDS011;8368;48.772;8.754;2022-12-13T07:41:08;26.83;;;12.17;;
16510;SDS011;8368;48.772;8.754;2022-12-13T07:43:34;31.13;;;12.60;;
16510;SDS011;8368;48.772;8.754;2022-12-13T07:46:01;30.60;;;12.50;;
16510;SDS011;8368;48.772;8.754;2022-12-13T07:48:28;24.10;;;12.33;;
16510;SDS011;8368;48.772;8.754;2022-12-13T07:50:59;25.03;;;12.33;;
16510;SDS011;8368;48.772;8.754;2022-12-13T07:53:25;19.20;;;10.17;;
16510;SDS011;8368;48.772;8.754;2022-12-13T07:55:51;19.37;;;10.00;;
16510;SDS011;8368;48.772;8.754;2022-12-13T07:58:17;27.90;;;10.40;;
16510;SDS011;8368;48.772;8.754;2022-12-13T08:00:43;24.03;;;10.37;;
16510;SDS011;8368;48.772;8.754;2022-12-13T08:03:09;20.43;;;10.73;;
16510;SDS011;8368;48.772;8.754;2022-12-13T08:05:35;22.13;;;10.27;;
16510;SDS011;8368;48.772;8.754;2022-12-13T08:08:02;24.53;;;10.43;;
16510;SDS011;8368;48.772;8.754;2022-12-13T08:10:29;18.03;;;10.47;;
16510;SDS011;8368;48.772;8.754;2022-12-13T08:12:56;21.83;;;10.77;;
16510;SDS011;8368;48.772;8.754;2022-12-13T08:15:21;24.57;;;11.53;;
16510;SDS011;8368;48.772;8.754;2022-12-13T08:17:47;23.30;;;10.87;;
16510;SDS011;8368;48.772;8.754;2022-12-13T08:20:13;22.20;;;11.30;;
16510;SDS011;8368;48.772;8.754;2022-12-13T08:22:39;28.97;;;12.00;;
16510;SDS011;8368;48.772;8.754;2022-12-13T08:25:05;22.20;;;10.77;;
16510;SDS011;8368;48.772;8.754;2022-12-13T08:27:32;25.27;;;12.00;;
16510;SDS011;8368;48.772;8.754;2022-12-13T08:29:57;20.57;;;11.27;;
16510;SDS011;8368;48.772;8.754;2022-12-13T08:32:23;23.90;;;11.03;;
16510;SDS011;8368;48.772;8.754;2022-12-13T08:34:48;23.20;;;12.10;;
16510;SDS011;8368;48.772;8.754;2022-12-13T08:37:14;22.50;;;11.90;;
16510;SDS011;8368;48.772;8.754;2022-12-13T08:39:40;20.90;;;10.70;;
16510;SDS011;8368;48.772;8.754;2022-12-13T08:42:11;25.77;;;11.80;;
16510;SDS011;8368;48.772;8.754;2022-12-13T08:44:38;25.70;;;11.93;;
16510;SDS011;8368;48.772;8.754;2022-12-13T08:47:03;26.17;;;11.57;;
16510;SDS011;8368;48.772;8.754;2022-12-13T08:49:29;24.63;;;11.97;;
16510;SDS011;8368;48.772;8.754;2022-12-13T08:51:55;29.30;;;13.23;;
16510;SDS011;8368;48.772;8.754;2022-12-13T08:54:20;38.27;;;15.93;;
16510;SDS011;8368;48.772;8.754;2022-12-13T08:56:46;28.17;;;14.43;;
16510;SDS011;8368;48.772;8.754;2022-12-13T08:59:11;34.60;;;16.13;;
16510;SDS011;8368;48.772;8.754;2022-12-13T09:01:37;33.30;;;15.00;;
16510;SDS011;8368;48.772;8.754;2022-12-13T09:04:02;29.13;;;14.33;;
16510;SDS011;8368;48.772;8.754;2022-12-13T09:06:28;24.13;;;12.37;;
16510;SDS011;8368;48.772;8.754;2022-12-13T09:08:53;28.43;;;13.67;;
16510;SDS011;8368;48.772;8.754;2022-12-13T09:11:19;26.73;;;13.43;;
16510;SDS011;8368;48.772;8.754;2022-12-13T09:13:45;29.20;;;12.23;;
16510;SDS011;8368;48.772;8.754;2022-12-13T09:16:12;23.17;;;11.93;;
16510;SDS011;8368;48.772;8.754;2022-12-13T09:18:40;26.07;;;12.70;;
16510;SDS011;8368;48.772;8.754;2022-12-13T09:21:07;22.93;;;12.73;;
16510;SDS011;8368;48.772;8.754;2022-12-13T09:23:33;28.37;;;12.77;;
16510;SDS011;8368;48.772;8.754;2022-12-13T09:25:59;25.73;;;12.73;;
16510;SDS011;8368;48.772;8.754;2022-12-13T09:28:26;23.57;;;12.60;;
16510;SDS011;8368;48.772;8.754;2022-12-13T09:30:53;24.87;;;11.90;;
16510;SDS011;8368;48.772;8.754;2022-12-13T09:33:19;21.13;;;11.97;;
16510;SDS011;8368;48.772;8.754;2022-12-13T09:35:45;22.60;;;11.30;;
16510;SDS011;8368;48.772;8.754;2022-12-13T09:38:11;22.63;;;11.17;;
16510;SDS011;8368;48.772;8.754;2022-12-13T09:40:37;22.73;;;11.60;;
16510;SDS011;8368;48.772;8.754;2022-12-13T09:43:03;21.80;;;11.13;;
16510;SDS011;8368;48.772;8.754;2022-12-13T09:45:30;22.60;;;11.00;;
16510;SDS011;8368;48.772;8.754;2022-12-13T09:47:57;19.27;;;10.40;;
16510;SDS011;8368;48.772;8.754;2022-12-13T09:50:30;23.10;;;11.63;;
16510;SDS011;8368;48.772;8.754;2022-12-13T09:53:00;19.40;;;10.70;;
16510;SDS011;8368;48.772;8.754;2022-12-13T09:55:38;22.50;;;10.90;;
16510;SDS011;8368;48.772;8.754;2022-12-13T09:58:10;21.10;;;10.70;;
16510;SDS011;8368;48.772;8.754;2022-12-13T10:00:41;20.87;;;9.93;;
16510;SDS011;8368;48.772;8.754;2022-12-13T10:03:11;21.20;;;10.77;;
16510;SDS011;8368;48.772;8.754;2022-12-13T10:05:40;26.03;;;11.73;;
16510;SDS011;8368;48.772;8.754;2022-12-13T10:08:18;20.00;;;9.87;;
16510;SDS011;8368;48.772;8.754;2022-12-13T10:10:49;26.83;;;12.10;;
16510;SDS011;8368;48.772;8.754;2022-12-13T10:13:30;21.27;;;10.87;;
16510;SDS011;8368;48.772;8.754;2022-12-13T10:16:22;18.20;;;9.70;;
16510;SDS011;8368;48.772;8.754;2022-12-13T10:18:58;22.67;;;11.20;;
16510;SDS011;8368;48.772;8.754;2022-12-13T10:21:27;20.47;;;10.90;;
16510;SDS011;8368;48.772;8.754;2022-12-13T10:24:18;20.70;;;10.40;;
16510;SDS011;8368;48.772;8.754;2022-12-13T10:26:58;17.80;;;9.63;;
16510;SDS011;8368;48.772;8.754;2022-12-13T10:30:19;22.50;;;10.33;;
16510;SDS011;8368;48.772;8.754;2022-12-13T10:32:40;21.83;;;10.23;;
16510;SDS011;8368;48.772;8.754;2022-12-13T10:37:42;18.80;;;9.70;;
16510;SDS011;8368;48.772;8.754;2022-12-13T10:40:21;18.00;;;9.60;;
16510;SDS011;8368;48.772;8.754;2022-12-13T10:45:35;16.47;;;8.83;;
16510;SDS011;8368;48.772;8.754;2022-12-13T10:48:01;22.47;;;10.73;;
16510;SDS011;8368;48.772;8.754;2022-12-13T10:50:28;18.87;;;9.83;;
16510;SDS011;8368;48.772;8.754;2022-12-13T10:52:54;18.70;;;10.70;;
16510;SDS011;8368;48.772;8.754;2022-12-13T10:55:32;20.27;;;10.27;;
16510;SDS011;8368;48.772;8.754;2022-12-13T10:58:05;20.20;;;10.77;;
16510;SDS011;8368;48.772;8.754;2022-12-13T11:00:38;18.57;;;10.77;;
16510;SDS011;8368;48.772;8.754;2022-12-13T11:03:06;23.13;;;11.53;;
16510;SDS011;8368;48.772;8.754;2022-12-13T11:05:34;18.03;;;10.13;;
16510;SDS011;8368;48.772;8.754;2022-12-13T11:08:17;19.07;;;9.47;;
16510;SDS011;8368;48.772;8.754;2022-12-13T11:10:57;18.00;;;9.30;;
16510;SDS011;8368;48.772;8.754;2022-12-13T11:13:34;19.13;;;10.10;;
16510;SDS011;8368;48.772;8.754;2022-12-13T11:16:21;23.17;;;10.77;;
16510;SDS011;8368;48.772;8.754;2022-12-13T11:18:59;19.33;;;9.47;;
16510;SDS011;8368;48.772;8.754;2022-12-13T11:21:32;15.20;;;9.40;;
16510;SDS011;8368;48.772;8.754;2022-12-13T11:24:01;19.73;;;10.20;;
16510;SDS011;8368;48.772;8.754;2022-12-13T11:26:33;20.30;;;10.23;;
16510;SDS011;8368;48.772;8.754;2022-12-13T11:29:26;18.70;;;9.53;;
16510;SDS011;8368;48.772;8.754;2022-12-13T11:32:20;18.20;;;9.57;;
16510;SDS011;8368;48.772;8.754;2022-12-13T11:35:07;17.00;;;9.83;;
16510;SDS011;8368;48.772;8.754;2022-12-13T11:37:56;17.03;;;9.07;;
16510;SDS011;8368;48.772;8.754;2022-12-13T11:40:36;22.77;;;9.87;;
16510;SDS011;8368;48.772;8.754;2022-12-13T11:43:10;16.80;;;9.90;;
16510;SDS011;8368;48.772;8.754;2022-12-13T11:45:59;18.57;;;9.10;;
16510;SDS011;8368;48.772;8.754;2022-12-13T11:51:20;16.53;;;8.37;;
16510;SDS011;8368;48.772;8.754;2022-12-13T11:53:53;19.73;;;9.03;;
16510;SDS011;8368;48.772;8.754;2022-12-13T11:59:12;15.10;;;8.50;;
16510;SDS011;8368;48.772;8.754;2022-12-13T12:07:40;18.90;;;8.00;;
16510;SDS011;8368;48.772;8.754;2022-12-13T12:10:21;15.83;;;8.97;;
16510;SDS011;8368;48.772;8.754;2022-12-13T12:12:57;17.60;;;9.23;;
16510;SDS011;8368;48.772;8.754;2022-12-13T12:15:32;16.10;;;8.17;;
16510;SDS011;8368;48.772;8.754;2022-12-13T12:18:02;18.77;;;9.00;;
16510;SDS011;8368;48.772;8.754;2022-12-13T12:20:38;16.23;;;9.37;;
16510;SDS011;8368;48.772;8.754;2022-12-13T12:26:16;17.67;;;9.70;;
16510;SDS011;8368;48.772;8.754;2022-12-13T12:31:35;18.27;;;9.17;;
16510;SDS011;8368;48.772;8.754;2022-12-13T12:34:33;16.97;;;8.20;;
16510;SDS011;8368;48.772;8.754;2022-12-13T12:47:49;16.43;;;8.50;;
16510;SDS011;8368;48.772;8.754;2022-12-13T13:01:28;15.23;;;8.73;;
16510;SDS011;8368;48.772;8.754;2022-12-13T13:04:16;14.67;;;7.93;;
16510;SDS011;8368;48.772;8.754;2022-12-13T13:06:44;14.23;;;7.40;;
16510;SDS011;8368;48.772;8.754;2022-12-13T13:09:17;13.53;;;7.53;;
16510;SDS011;8368;48.772;8.754;2022-12-13T13:11:43;17.83;;;7.43;;
16510;SDS011;8368;48.772;8.754;2022-12-13T13:16:55;11.87;;;7.57;;
16510;SDS011;8368;48.772;8.754;2022-12-13T13:22:25;21.70;;;11.13;;
16510;SDS011;8368;48.772;8.754;2022-12-13T13:24:57;20.80;;;11.03;;
16510;SDS011;8368;48.772;8.754;2022-12-13T13:27:40;22.27;;;12.53;;
16510;SDS011;8368;48.772;8.754;2022-12-13T13:30:18;20.03;;;11.90;;
16510;SDS011;8368;48.772;8.754;2022-12-13T13:32:49;20.73;;;10.83;;
16510;SDS011;8368;48.772;8.754;2022-12-13T13:38:00;21.30;;;11.10;;
16510;SDS011;8368;48.772;8.754;2022-12-13T13:40:34;19.60;;;9.17;;
16510;SDS011;8368;48.772;8.754;2022-12-13T13:45:32;18.90;;;10.43;;
16510;SDS011;8368;48.772;8.754;2022-12-13T14:05:16;21.93;;;10.13;;
16510;SDS011;8368;48.772;8.754;2022-12-13T14:11:02;22.73;;;10.43;;
16510;SDS011;8368;48.772;8.754;2022-12-13T14:20:23;19.23;;;9.93;;
16510;SDS011;8368;48.772;8.754;2022-12-13T14:31:13;19.83;;;11.43;;
16510;SDS011;8368;48.772;8.754;2022-12-13T14:33:45;21.53;;;10.80;;
16510;SDS011;8368;48.772;8.754;2022-12-13T14:36:15;25.13;;;11.27;;
16510;SDS011;8368;48.772;8.754;2022-12-13T14:38:49;17.13;;;10.13;;
16510;SDS011;8368;48.772;8.754;2022-12-13T14:41:24;25.27;;;11.93;;
16510;SDS011;8368;48.772;8.754;2022-12-13T14:43:49;24.13;;;11.77;;
16510;SDS011;8368;48.772;8.754;2022-12-13T14:46:15;22.23;;;11.10;;
16510;SDS011;8368;48.772;8.754;2022-12-13T14:51:28;38.23;;;16.30;;
16510;SDS011;8368;48.772;8.754;2022-12-13T14:53:57;41.10;;;16.47;;
16510;SDS011;8368;48.772;8.754;2022-12-13T14:56:23;40.83;;;17.07;;
16510;SDS011;8368;48.772;8.754;2022-12-13T14:58:53;36.10;;;15.23;;
16510;SDS011;8368;48.772;8.754;2022-12-13T15:01:31;51.17;;;22.40;;
16510;SDS011;8368;48.772;8.754;2022-12-13T15:06:45;26.83;;;12.40;;
16510;SDS011;8368;48.772;8.754;2022-12-13T15:09:14;23.53;;;10.77;;
16510;SDS011;8368;48.772;8.754;2022-12-13T15:11:41;26.07;;;11.43;;
16510;SDS011;8368;48.772;8.754;2022-12-13T15:14:13;17.17;;;10.10;;
16510;SDS011;8368;48.772;8.754;2022-12-13T15:16:45;23.97;;;11.77;;
16510;SDS011;8368;48.772;8.754;2022-12-13T15:19:20;34.50;;;12.10;;
16510;SDS011;8368;48.772;8.754;2022-12-13T15:21:54;23.03;;;11.30;;
16510;SDS011;8368;48.772;8.754;2022-12-13T15:24:22;27.20;;;11.33;;
16510;SDS011;8368;48.772;8.754;2022-12-13T15:26:51;21.80;;;10.73;;
16510;SDS011;8368;48.772;8.754;2022-12-13T15:29:19;19.53;;;10.07;;
16510;SDS011;8368;48.772;8.754;2022-12-13T15:31:46;24.70;;;11.73;;
16510;SDS011;8368;48.772;8.754;2022-12-13T15:36:54;19.90;;;11.17;;
16510;SDS011;8368;48.772;8.754;2022-12-13T15:39:21;20.73;;;11.13;;
16510;SDS011;8368;48.772;8.754;2022-12-13T15:41:48;23.57;;;12.20;;
16510;SDS011;8368;48.772;8.754;2022-12-13T15:44:32;23.60;;;11.60;;
16510;SDS011;8368;48.772;8.754;2022-12-13T15:47:06;25.03;;;12.77;;
16510;SDS011;8368;48.772;8.754;2022-12-13T15:49:38;26.57;;;13.03;;
16510;SDS011;8368;48.772;8.754;2022-12-13T15:54:43;32.93;;;15.97;;
16510;SDS011;8368;48.772;8.754;2022-12-13T15:57:21;26.33;;;14.80;;
16510;SDS011;8368;48.772;8.754;2022-12-13T15:59:59;25.90;;;12.83;;
16510;SDS011;8368;48.772;8.754;2022-12-13T16:02:28;19.77;;;11.00;;
16510;SDS011;8368;48.772;8.754;2022-12-13T16:05:03;21.50;;;11.60;;
16510;SDS011;8368;48.772;8.754;2022-12-13T16:07:34;27.57;;;12.07;;
16510;SDS011;8368;48.772;8.754;2022-12-13T16:10:04;20.63;;;10.60;;
16510;SDS011;8368;48.772;8.754;2022-12-13T16:12:38;21.37;;;11.40;;
16510;SDS011;8368;48.772;8.754;2022-12-13T16:15:15;30.40;;;12.80;;
16510;SDS011;8368;48.772;8.754;2022-12-13T16:17:50;25.60;;;10.90;;
16510;SDS011;8368;48.772;8.754;2022-12-13T16:20:21;26.37;;;11.67;;
16510;SDS011;8368;48.772;8.754;2022-12-13T16:22:47;26.43;;;12.10;;
16510;SDS011;8368;48.772;8.754;2022-12-13T16:25:14;22.87;;;12.63;;
16510;SDS011;8368;48.772;8.754;2022-12-13T16:27:42;24.23;;;13.97;;
16510;SDS011;8368;48.772;8.754;2022-12-13T16:30:20;25.07;;;15.00;;
16510;SDS011;8368;48.772;8.754;2022-12-13T16:32:49;28.50;;;13.93;;
16510;SDS011;8368;48.772;8.754;2022-12-13T16:35:15;26.37;;;12.67;;
16510;SDS011;8368;48.772;8.754;2022-12-13T16:37:40;29.10;;;13.53;;
16510;SDS011;8368;48.772;8.754;2022-12-13T16:40:27;24.43;;;12.53;;
16510;SDS011;8368;48.772;8.754;2022-12-13T16:42:58;25.37;;;12.47;;
16510;SDS011;8368;48.772;8.754;2022-12-13T16:45:29;22.73;;;11.90;;
16510;SDS011;8368;48.772;8.754;2022-12-13T16:48:01;33.00;;;16.83;;
16510;SDS011;8368;48.772;8.754;2022-12-13T16:50:29;31.73;;;16.60;;
16510;SDS011;8368;48.772;8.754;2022-12-13T16:52:54;67.43;;;23.50;;
16510;SDS011;8368;48.772;8.754;2022-12-13T16:55:20;78.03;;;28.97;;